Time,TemperatureF,DewpointF,PressureIn,WindDirection,WindDirectionDegrees,WindSpeedMPH,WindSpeedGustMPH,Humidity,HourlyPrecipIn,Conditions,Clouds,dailyrainin,SoftwareType,DateUTC
2014-09-18 00:05:00,57.2,-42.6,29.50,SE,135,0.0,-999.0,1,-99.99,,,0.00,Acu-Link.com,2014-09-18 07:05:00,
2014-09-18 00:20:00,57.7,-42.3,29.51,SSE,157,0.0,-999.0,1,-99.99,,,0.00,Acu-Link.com,2014-09-18 07:20:00,
2014-09-18 00:36:00,57.6,-42.3,29.51,SSE,157,0.0,-999.0,1,-99.99,,,0.00,Acu-Link.com,2014-09-18 07:36:00,
2014-09-18 00:51:00,57.2,-42.6,29.51,SE,135,0.0,-999.0,1,-99.99,,,0.00,Acu-Link.com,2014-09-18 07:51:00,
2014-09-18 01:06:00,56.8,-42.8,29.51,SE,135,0.0,-999.0,1,-99.99,,,0.00,Acu-Link.com,2014-09-18 08:06:00,
2014-09-18 01:21:00,56.1,-43.2,29.51,SE,135,0.0,-999.0,1,-99.99,,,0.00,Acu-Link.com,2014-09-18 08:21:00,
2014-09-18 01:36:00,55.4,-43.7,29.51,SE,135,0.0,-999.0,1,-99.99,,,0.00,Acu-Link.com,2014-09-18 08:36:00,
2014-09-18 01:51:00,54.9,-44.0,29.51,SE,135,0.0,-999.0,1,-99.99,,,0.00,Acu-Link.com,2014-09-18 08:51:00,
2014-09-18 02:06:00,54.7,-44.1,29.51,SE,135,0.0,-999.0,1,-99.99,,,0.00,Acu-Link.com,2014-09-18 09:06:00,
2014-09-18 02:21:00,54.1,-44.4,29.51,SE,135,0.0,-999.0,1,-99.99,,,0.00,Acu-Link.com,2014-09-18 09:21:00,
2014-09-18 02:36:00,54.1,-44.4,29.50,SE,135,0.0,-999.0,1,-99.99,,,0.00,Acu-Link.com,2014-09-18 09:36:00,
2014-09-18 02:52:00,54.0,-44.5,29.50,SE,135,0.0,-999.0,1,-99.99,,,0.00,Acu-Link.com,2014-09-18 09:52:00,
2014-09-18 03:07:00,53.8,-44.6,29.50,SE,135,0.0,-999.0,1,-99.99,,,0.00,Acu-Link.com,2014-09-18 10:07:00,
2014-09-18 03:22:00,54.0,-44.5,29.50,SE,135,0.0,-999.0,1,-99.99,,,0.00,Acu-Link.com,2014-09-18 10:22:00,
2014-09-18 03:37:00,53.8,-44.6,29.50,SE,135,0.0,-999.0,1,-99.99,,,0.00,Acu-Link.com,2014-09-18 10:37:00,
2014-09-18 03:52:00,53.2,-45.0,29.50,SE,135,0.0,-999.0,1,-99.99,,,0.00,Acu-Link.com,2014-09-18 10:52:00,
2014-09-18 04:07:00,53.2,-45.0,29.50,SE,135,0.0,-999.0,1,-99.99,,,0.00,Acu-Link.com,2014-09-18 11:07:00,
2014-09-18 04:23:00,53.1,-45.1,29.51,SE,135,0.0,-999.0,1,-99.99,,,0.00,Acu-Link.com,2014-09-18 11:23:00,
2014-09-18 04:38:00,52.7,-45.3,29.50,SE,135,0.0,-999.0,1,-99.99,,,0.00,Acu-Link.com,2014-09-18 11:38:00,
2014-09-18 04:53:00,52.2,-45.6,29.51,SE,135,0.0,-999.0,1,-99.99,,,0.00,Acu-Link.com,2014-09-18 11:53:00,
2014-09-18 05:08:00,52.0,-45.7,29.51,SE,135,0.0,-999.0,1,-99.99,,,0.00,Acu-Link.com,2014-09-18 12:08:00,
2014-09-18 05:23:00,52.0,-45.7,29.51,SE,135,0.0,-999.0,1,-99.99,,,0.00,Acu-Link.com,2014-09-18 12:23:00,
2014-09-18 05:38:00,51.8,-45.8,29.51,SE,135,0.0,-999.0,1,-99.99,,,0.00,Acu-Link.com,2014-09-18 12:38:00,
2014-09-18 05:53:00,51.8,-45.8,29.52,SE,135,0.0,-999.0,1,-99.99,,,0.00,Acu-Link.com,2014-09-18 12:53:00,
2014-09-18 06:08:00,51.8,-45.8,29.52,SE,135,0.0,-999.0,1,-99.99,,,0.00,Acu-Link.com,2014-09-18 13:08:00,
2014-09-18 06:23:00,52.2,-45.6,29.53,SE,135,0.0,-999.0,1,-99.99,,,0.00,Acu-Link.com,2014-09-18 13:23:00,
2014-09-18 06:39:00,52.3,-45.5,29.53,SE,135,0.0,-999.0,1,-99.99,,,0.00,Acu-Link.com,2014-09-18 13:39:00,
2014-09-18 06:54:00,52.5,-45.4,29.54,SE,135,0.0,-999.0,1,-99.99,,,0.00,Acu-Link.com,2014-09-18 13:54:00,
2014-09-18 07:09:00,52.7,-45.3,29.54,SE,135,0.0,-999.0,1,-99.99,,,0.00,Acu-Link.com,2014-09-18 14:09:00,
2014-09-18 07:24:00,53.2,-45.0,29.55,SE,135,0.0,-999.0,1,-99.99,,,0.00,Acu-Link.com,2014-09-18 14:24:00,
2014-09-18 07:39:00,53.8,-44.6,29.56,SE,135,0.0,-999.0,1,-99.99,,,0.00,Acu-Link.com,2014-09-18 14:39:00,
2014-09-18 07:54:00,54.3,-44.3,29.56,SE,135,0.0,-999.0,1,-99.99,,,0.00,Acu-Link.com,2014-09-18 14:54:00,
2014-09-18 08:09:00,55.4,-43.7,29.57,SE,135,0.0,-999.0,1,-99.99,,,0.00,Acu-Link.com,2014-09-18 15:09:00,
2014-09-18 08:24:00,56.3,-43.1,29.58,SE,135,0.0,-999.0,1,-99.99,,,0.00,Acu-Link.com,2014-09-18 15:24:00,
2014-09-18 08:39:00,57.4,-42.4,29.57,SE,135,0.0,-999.0,1,-99.99,,,0.00,Acu-Link.com,2014-09-18 15:39:00,
2014-09-18 08:54:00,58.1,-42.0,29.59,SE,135,0.0,-999.0,1,-99.99,,,0.00,Acu-Link.com,2014-09-18 15:54:00,
2014-09-18 09:10:00,58.6,-41.7,29.59,South,180,0.0,-999.0,1,-99.99,,,0.00,Acu-Link.com,2014-09-18 16:10:00,
2014-09-18 09:25:00,59.2,-41.3,29.59,South,180,0.0,-999.0,1,-99.99,,,0.00,Acu-Link.com,2014-09-18 16:25:00,
2014-09-18 09:40:00,59.4,-41.2,29.60,South,180,0.0,-999.0,1,-99.99,,,0.00,Acu-Link.com,2014-09-18 16:40:00,